Time;durP1;ratioP1;P1;durP2;ratioP2;P2;SDS_P1;SDS_P2;PMS_P1;PMS_P2;Temp;Humidity;BMP_temperature;BMP_pressure;BME280_temperature;BME280_humidity;BME280_pressure;Samples;Min_cycle;Max_cycle;Signal;HPM_P1;HPM_P2
2021/10/11 00:02:21;;;;;;;12.03;11.03;;;;;;;;;;5066095;28;20191;-85
2021/10/11 00:04:47;;;;;;;11.57;10.50;;;5.50;1.00;;;;;;5047108;28;20224;-85
2021/10/11 00:07:12;;;;;;;11.60;10.43;;;5.50;1.00;;;;;;5054864;28;20238;-85
2021/10/11 00:09:39;;;;;;;12.07;10.93;;;;;;;;;;5053410;28;20670;-85
2021/10/11 00:12:05;;;;;;;16.07;14.33;;;;;;;;;;5029970;28;20219;-84
2021/10/11 00:14:31;;;;;;;17.67;15.87;;;;;;;;;;5033351;28;20191;-84
2021/10/11 00:16:57;;;;;;;16.57;14.97;;;;;;;;;;5045988;28;20191;-84
2021/10/11 00:19:23;;;;;;;23.03;21.17;;;5.40;1.00;;;;;;5031246;28;20198;-84
2021/10/11 00:21:49;;;;;;;19.57;18.13;;;;;;;;;;5070654;28;20195;-84
2021/10/11 00:24:15;;;;;;;14.83;13.20;;;;;;;;;;5065197;28;20234;-85
2021/10/11 00:26:40;;;;;;;16.67;15.33;;;5.30;1.00;;;;;;5037895;28;20206;-84
2021/10/11 00:29:06;;;;;;;27.43;25.57;;;5.30;1.00;;;;;;5055899;28;20586;-85
2021/10/11 00:31:31;;;;;;;21.00;19.47;;;5.30;1.00;;;;;;5052034;28;20191;-85
2021/10/11 00:33:57;;;;;;;31.80;29.40;;;;;;;;;;5052188;28;20255;-85
2021/10/11 00:36:24;;;;;;;29.63;27.40;;;5.20;1.00;;;;;;5038106;28;20213;-85
2021/10/11 00:38:50;;;;;;;41.83;38.83;;;5.10;1.00;;;;;;5039785;28;20576;-85
2021/10/11 00:41:16;;;;;;;39.47;37.13;;;5.10;1.00;;;;;;5057092;28;20191;-85
2021/10/11 00:43:44;;;;;;;35.57;33.07;;;5.10;1.00;;;;;;5055843;28;20187;-85
2021/10/11 00:46:10;;;;;;;26.77;24.73;;;5.10;1.00;;;;;;5038179;28;20194;-84
2021/10/11 00:48:36;;;;;;;75.97;70.03;;;;;;;;;;5038560;28;20270;-85
2021/10/11 00:51:04;;;;;;;69.63;65.27;;;5.10;1.00;;;;;;5052066;28;20190;-85
2021/10/11 00:53:30;;;;;;;116.07;110.33;;;5.10;1.00;;;;;;5039313;28;20187;-85
2021/10/11 00:55:56;;;;;;;169.90;161.80;;;;;;;;;;5041768;28;20195;-85
2021/10/11 00:58:22;;;;;;;186.57;178.43;;;;;;;;;;5038778;28;20203;-85
2021/10/11 01:00:48;;;;;;;189.10;181.10;;;;;;;;;;5037142;28;20305;-85
2021/10/11 01:03:14;;;;;;;181.47;173.57;;;5.00;1.00;;;;;;5038108;28;20215;-85
2021/10/11 01:05:40;;;;;;;206.67;197.27;;;;;;;;;;5032758;28;21922;-85
2021/10/11 01:08:05;;;;;;;185.40;175.17;;;4.90;1.00;;;;;;5051249;28;20183;-85
2021/10/11 01:10:31;;;;;;;194.20;184.07;;;4.80;1.00;;;;;;5070953;28;20273;-85
2021/10/11 01:12:57;;;;;;;231.37;218.77;;;;;;;;;;5038824;28;20195;-85
2021/10/11 01:15:23;;;;;;;275.87;262.50;;;4.80;1.00;;;;;;5042369;28;20191;-85
2021/10/11 01:17:48;;;;;;;228.63;215.97;;;4.80;1.00;;;;;;5039185;28;20550;-85
2021/10/11 01:20:14;;;;;;;247.13;235.00;;;;;;;;;;5038532;28;20215;-83
2021/10/11 01:22:43;;;;;;;238.47;225.73;;;4.90;1.00;;;;;;5038350;28;20204;-82
2021/10/11 01:25:12;;;;;;;329.30;312.80;;;4.90;1.00;;;;;;5050486;28;20221;-82
2021/10/11 01:27:38;;;;;;;421.60;402.50;;;;;;;;;;5052231;28;20191;-82
2021/10/11 01:30:06;;;;;;;476.17;455.07;;;4.90;1.00;;;;;;5075564;28;20202;-82
2021/10/11 01:32:31;;;;;;;530.73;505.43;;;4.90;1.00;;;;;;5054132;28;20191;-81
2021/10/11 01:34:57;;;;;;;484.10;457.83;;;4.90;1.00;;;;;;5045894;28;20190;-82
2021/10/11 01:37:23;;;;;;;393.47;372.07;;;4.90;1.00;;;;;;5035547;28;20226;-82
2021/10/11 01:39:48;;;;;;;460.73;436.43;;;4.80;1.00;;;;;;5052522;28;20674;-82
2021/10/11 01:42:14;;;;;;;433.47;412.37;;;4.80;1.00;;;;;;5042306;28;20194;-82
2021/10/11 01:44:40;;;;;;;514.97;490.33;;;;;;;;;;5042579;28;20227;-82
2021/10/11 01:47:06;;;;;;;586.83;560.33;;;;;;;;;;5038755;28;20293;-82
2021/10/11 01:49:32;;;;;;;617.03;588.40;;;4.70;1.00;;;;;;5038534;28;20184;-82
2021/10/11 01:51:58;;;;;;;623.03;592.93;;;4.70;1.00;;;;;;5044538;28;20183;-82
2021/10/11 01:54:24;;;;;;;653.80;619.40;;;;;;;;;;5069621;28;20205;-82
2021/10/11 01:56:50;;;;;;;498.50;471.93;;;;;;;;;;5040939;28;20192;-82
2021/10/11 01:59:16;;;;;;;436.73;414.10;;;;;;;;;;5045428;28;20186;-82
2021/10/11 02:01:42;;;;;;;467.20;445.43;;;;;;;;;;5038693;28;20195;-82
2021/10/11 02:04:08;;;;;;;163.10;153.47;;;;;;;;;;5040392;28;20292;-82
2021/10/11 02:06:33;;;;;;;74.77;67.97;;;4.70;1.00;;;;;;5040864;28;20191;-82
2021/10/11 02:08:59;;;;;;;87.13;80.00;;;;;;;;;;5052475;28;20192;-81
2021/10/11 02:11:28;;;;;;;153.97;144.40;;;;;;;;;;5044594;28;20194;-82
2021/10/11 02:13:54;;;;;;;346.47;328.20;;;;;;;;;;5043762;28;20194;-82
2021/10/11 02:16:20;;;;;;;610.90;578.47;;;4.60;1.00;;;;;;5041033;28;20195;-82
2021/10/11 02:18:45;;;;;;;762.30;720.00;;;6.80;1.00;;;;;;5043031;28;20199;-82
2021/10/11 02:21:11;;;;;;;796.83;753.30;;;4.80;1.00;;;;;;5057525;28;20195;-82
2021/10/11 02:23:37;;;;;;;790.97;749.77;;;5.50;1.00;;;;;;5034057;28;20191;-82
2021/10/11 02:26:02;;;;;;;677.97;644.30;;;4.60;1.00;;;;;;5040879;28;20276;-82
2021/10/11 02:28:28;;;;;;;891.07;837.73;;;;;;;;;;5038479;28;20188;-82
2021/10/11 02:30:54;;;;;;;1054.73;981.13;;;;;;;;;;5038827;28;20199;-82
2021/10/11 02:33:20;;;;;;;961.23;900.73;;;4.50;1.00;;;;;;5041143;28;20191;-82
2021/10/11 02:35:45;;;;;;;724.10;687.27;;;4.50;1.00;;;;;;5039410;28;20203;-82
2021/10/11 02:38:11;;;;;;;321.43;307.37;;;5.50;1.00;;;;;;5031221;28;20195;-81
2021/10/11 02:40:37;;;;;;;353.57;336.90;;;4.60;1.00;;;;;;5033653;28;20191;-82
2021/10/11 02:43:03;;;;;;;671.30;634.73;;;4.60;1.00;;;;;;5038641;28;20187;-82
2021/10/11 02:45:29;;;;;;;983.83;917.67;;;4.80;1.00;;;;;;5048477;28;20298;-82
2021/10/11 02:47:55;;;;;;;1034.43;955.57;;;;;;;;;;5042872;28;20187;-82
2021/10/11 02:50:21;;;;;;;989.83;917.57;;;;;;;;;;5047860;28;20191;-82
2021/10/11 02:52:47;;;;;;;841.27;788.97;;;;;;;;;;5034448;28;20187;-82
2021/10/11 02:55:13;;;;;;;650.20;617.33;;;4.30;1.00;;;;;;5041110;28;20227;-82
2021/10/11 02:57:39;;;;;;;709.60;669.53;;;4.20;1.00;;;;;;5038557;28;20217;-82
2021/10/11 03:00:06;;;;;;;954.03;890.03;;;4.30;1.00;;;;;;5038770;28;20742;-82
2021/10/11 03:02:33;;;;;;;1126.97;999.90;;;;;;;;;;5036188;28;20191;-82
2021/10/11 03:04:59;;;;;;;1118.33;999.90;;;4.30;1.00;;;;;;5041073;28;20700;-82
2021/10/11 03:07:24;;;;;;;971.00;905.37;;;4.30;1.00;;;;;;5056489;28;20225;-82
2021/10/11 03:09:50;;;;;;;795.40;750.40;;;4.30;1.00;;;;;;5058291;28;20274;-82
2021/10/11 03:12:16;;;;;;;506.07;482.53;;;6.40;1.00;;;;;;5037964;28;20206;-81
2021/10/11 03:14:41;;;;;;;226.37;215.30;;;4.40;1.00;;;;;;5037255;28;20203;-82
2021/10/11 03:17:07;;;;;;;162.33;153.47;;;4.50;1.00;;;;;;5055473;28;20183;-82
2021/10/11 03:19:33;;;;;;;231.27;220.80;;;;;;;;;;5039397;28;20839;-82
2021/10/11 03:21:59;;;;;;;461.20;441.33;;;4.50;1.00;;;;;;5042801;28;20194;-82
2021/10/11 03:24:25;;;;;;;601.17;573.63;;;;;;;;;;5040792;28;20226;-81
2021/10/11 03:26:51;;;;;;;712.83;678.43;;;;;;;;;;5034729;28;20195;-82
2021/10/11 03:29:17;;;;;;;860.13;812.70;;;4.40;1.00;;;;;;5038678;28;20183;-82
2021/10/11 03:31:43;;;;;;;938.40;881.33;;;4.30;1.00;;;;;;5050037;28;20192;-82
2021/10/11 03:34:11;;;;;;;1000.23;934.13;;;5.80;1.00;;;;;;5035495;28;20293;-82
2021/10/11 03:36:37;;;;;;;1042.80;968.67;;;4.30;1.00;;;;;;5038036;28;20259;-82
2021/10/11 03:39:03;;;;;;;1093.57;999.90;;;;;;;;;;5042111;28;20735;-82
2021/10/11 03:41:29;;;;;;;1172.30;999.90;;;4.20;1.00;;;;;;5040760;28;20196;-82
2021/10/11 03:43:55;;;;;;;1192.70;999.90;;;4.10;1.00;;;;;;5031928;28;20203;-82
2021/10/11 03:46:20;;;;;;;1187.70;999.90;;;4.30;1.00;;;;;;5033788;28;20198;-82
2021/10/11 03:48:46;;;;;;;1099.23;997.80;;;6.50;1.00;;;;;;5039793;28;20187;-81
2021/10/11 03:51:12;;;;;;;952.53;860.07;;;;;;;;;;5061895;28;20236;-82
2021/10/11 03:53:38;;;;;;;670.90;604.67;;;;;;;;;;5033100;28;20191;-82
2021/10/11 03:56:04;;;;;;;420.30;379.97;;;4.40;1.00;;;;;;5047110;28;20191;-82
2021/10/11 03:58:29;;;;;;;1999.90;999.90;;;4.40;1.00;;;;;;5069234;28;20199;-82
2021/10/11 04:00:55;;;;;;;1999.90;999.90;;;4.40;1.00;;;;;;5034761;28;20196;-82
2021/10/11 04:03:20;;;;;;;1999.90;999.90;;;4.40;1.00;;;;;;5053697;28;20258;-82
2021/10/11 04:05:46;;;;;;;1999.90;999.90;;;4.40;1.00;;;;;;5074240;28;20222;-81
2021/10/11 04:08:14;;;;;;;1999.90;999.90;;;4.60;1.00;;;;;;5039150;28;20274;-81
2021/10/11 04:13:29;;;;;;;1999.90;999.90;;;;;;;;;;5049332;28;20199;-81
2021/10/11 04:15:55;;;;;;;1999.90;999.90;;;;;;;;;;5035187;28;20202;-81
2021/10/11 04:18:21;;;;;;;1999.90;999.90;;;4.70;1.00;;;;;;5037150;28;20187;-81
2021/10/11 04:20:47;;;;;;;1999.90;999.90;;;4.80;1.00;;;;;;5039344;28;20217;-81
2021/10/11 04:23:14;;;;;;;1459.57;781.60;;;4.90;1.00;;;;;;5056378;28;20203;-84
2021/10/11 04:25:40;;;;;;;1999.90;999.90;;;;;;;;;;5037522;28;20206;-80
2021/10/11 04:28:08;;;;;;;1999.90;999.90;;;;;;;;;;5053202;28;20187;-81
2021/10/11 04:30:34;;;;;;;1999.90;999.90;;;6.80;1.00;;;;;;5041743;28;20188;-81
2021/10/11 04:33:00;;;;;;;1999.90;999.90;;;5.30;1.00;;;;;;5046196;28;20217;-82
2021/10/11 04:35:27;;;;;;;1999.90;999.90;;;4.80;1.00;;;;;;5040041;28;20187;-81
2021/10/11 04:37:53;;;;;;;1999.90;999.90;;;;;;;;;;5052392;28;20183;-82
2021/10/11 04:40:21;;;;;;;1999.90;999.90;;;4.70;1.00;;;;;;5047958;28;20192;-82
2021/10/11 04:42:46;;;;;;;1250.20;999.90;;;4.60;1.00;;;;;;5034587;28;20274;-82
2021/10/11 04:45:12;;;;;;;1207.80;999.90;;;4.70;1.00;;;;;;5039317;28;20227;-82
2021/10/11 04:47:38;;;;;;;1196.27;999.90;;;4.70;1.00;;;;;;5037473;28;20171;-82
2021/10/11 04:50:05;;;;;;;1139.00;999.90;;;4.70;1.00;;;;;;5052920;28;20265;-82
2021/10/11 04:52:31;;;;;;;1061.23;982.97;;;;;;;;;;5052196;28;20599;-81
2021/10/11 04:54:56;;;;;;;948.33;888.07;;;4.70;1.00;;;;;;5047962;28;20191;-82
2021/10/11 04:57:22;;;;;;;885.60;831.43;;;;;;;;;;5038170;28;20203;-82
2021/10/11 04:59:48;;;;;;;813.23;767.53;;;4.60;1.00;;;;;;5053712;28;20230;-82
2021/10/11 05:02:14;;;;;;;617.33;588.40;;;6.00;1.00;;;;;;5034565;28;20192;-82
2021/10/11 05:04:39;;;;;;;334.37;318.37;;;4.80;1.00;;;;;;5039572;28;20245;-82
2021/10/11 05:07:05;;;;;;;260.17;247.43;;;4.70;1.00;;;;;;5039365;28;20258;-82
2021/10/11 05:09:31;;;;;;;153.33;143.77;;;;;;;;;;5037005;28;20208;-82
2021/10/11 05:11:58;;;;;;;122.27;113.80;;;4.70;1.00;;;;;;5039940;28;20195;-82
2021/10/11 05:14:25;;;;;;;156.20;146.63;;;;;;;;;;5043200;28;20198;-82
2021/10/11 05:16:53;;;;;;;240.67;228.27;;;;;;;;;;5042460;28;20248;-82
2021/10/11 05:19:24;;;;;;;266.73;253.30;;;;;;;;;;5053974;28;20199;-82
2021/10/11 05:21:51;;;;;;;439.97;417.90;;;;;;;;;;5043000;28;20186;-82
2021/10/11 05:24:17;;;;;;;637.87;607.33;;;4.50;1.00;;;;;;5039705;28;20219;-82
2021/10/11 05:26:43;;;;;;;722.73;686.80;;;4.40;1.00;;;;;;5040780;28;20230;-82
2021/10/11 05:29:09;;;;;;;806.53;763.47;;;;;;;;;;5034777;28;20559;-82
2021/10/11 05:31:37;;;;;;;914.33;857.23;;;4.40;1.00;;;;;;5036572;28;20229;-82
2021/10/11 05:34:04;;;;;;;938.77;877.20;;;4.60;1.00;;;;;;5050254;28;20238;-82
2021/10/11 05:36:30;;;;;;;944.57;873.83;;;;;;;;;;5037111;28;20195;-82
2021/10/11 05:38:56;;;;;;;980.97;902.07;;;;;;;;;;5052985;28;20184;-81
2021/10/11 05:41:21;;;;;;;1036.33;951.27;;;4.70;1.00;;;;;;5039223;28;20190;-82
2021/10/11 05:43:48;;;;;;;1999.90;999.90;;;;;;;;;;5052170;28;20214;-82
2021/10/11 05:46:13;;;;;;;1999.90;999.90;;;4.60;1.00;;;;;;5041535;28;20219;-82
2021/10/11 05:48:39;;;;;;;1999.90;999.90;;;;;;;;;;5038986;28;20205;-82
2021/10/11 05:51:05;;;;;;;1999.90;999.90;;;;;;;;;;5037686;28;20200;-82
2021/10/11 05:53:31;;;;;;;1999.90;999.90;;;4.40;1.00;;;;;;5038555;28;20563;-82
2021/10/11 05:55:56;;;;;;;1999.90;999.90;;;4.40;1.00;;;;;;5052554;28;20222;-82
2021/10/11 05:58:22;;;;;;;1999.90;999.90;;;4.50;1.00;;;;;;5039487;28;20282;-82
2021/10/11 06:00:49;;;;;;;1999.90;999.90;;;;;;;;;;5055143;28;20294;-82
2021/10/11 06:03:14;;;;;;;1999.90;999.90;;;4.70;1.00;;;;;;5042735;28;20219;-81
2021/10/11 06:05:40;;;;;;;1999.90;999.90;;;;;;;;;;5036629;28;20237;-82
2021/10/11 06:08:06;;;;;;;800.70;744.73;;;4.70;1.00;;;;;;5034521;28;20187;-82
2021/10/11 06:10:32;;;;;;;828.90;766.73;;;4.70;1.00;;;;;;5034213;28;20562;-82
2021/10/11 06:12:57;;;;;;;809.50;754.40;;;4.90;1.00;;;;;;5056320;28;20195;-82
2021/10/11 06:15:23;;;;;;;933.73;863.27;;;4.80;1.00;;;;;;5069190;28;20624;-80
2021/10/11 06:17:49;;;;;;;838.30;780.70;;;4.90;1.00;;;;;;5050614;28;20261;-80
2021/10/11 06:20:14;;;;;;;827.40;769.10;;;4.90;1.00;;;;;;5038278;28;20293;-80
2021/10/11 06:22:40;;;;;;;835.33;779.33;;;5.00;1.00;;;;;;5048553;28;20750;-80
2021/10/11 06:25:06;;;;;;;680.87;638.10;;;8.10;1.00;;;;;;5032312;28;20709;-80
2021/10/11 06:27:33;;;;;;;745.30;698.77;;;;;;;;;;5050419;28;20675;-80
2021/10/11 06:29:59;;;;;;;705.67;660.50;;;5.30;1.00;;;;;;5035811;28;20234;-80
2021/10/11 06:32:25;;;;;;;546.77;516.43;;;5.30;1.00;;;;;;5034733;28;20517;-79
2021/10/11 06:34:50;;;;;;;698.27;654.60;;;5.50;1.00;;;;;;5035328;28;20202;-79
2021/10/11 06:37:16;;;;;;;879.53;815.40;;;5.50;1.00;;;;;;5070154;28;20194;-81
2021/10/11 06:39:42;;;;;;;888.70;824.27;;;6.10;1.00;;;;;;5053615;28;20313;-81
2021/10/11 06:42:08;;;;;;;1061.47;970.17;;;;;;;;;;5052457;28;20194;-79
2021/10/11 06:44:34;;;;;;;943.70;864.87;;;5.70;1.00;;;;;;5034386;28;20215;-79
2021/10/11 06:47:00;;;;;;;967.43;887.43;;;5.80;1.00;;;;;;5049422;28;20238;-79
2021/10/11 06:49:26;;;;;;;1069.50;979.90;;;5.80;1.00;;;;;;5026512;28;20619;-78
2021/10/11 06:51:51;;;;;;;1121.67;999.90;;;5.90;1.00;;;;;;5028867;28;20554;-80
2021/10/11 06:54:17;;;;;;;1029.40;946.43;;;5.90;1.00;;;;;;5032804;28;20922;-78
2021/10/11 06:56:43;;;;;;;1020.63;944.27;;;;;;;;;;5028725;28;20202;-78
2021/10/11 06:59:09;;;;;;;972.93;904.70;;;6.10;1.00;;;;;;5041447;28;20192;-78
2021/10/11 07:01:34;;;;;;;928.30;862.33;;;6.10;1.00;;;;;;5026517;28;20225;-78
2021/10/11 07:04:00;;;;;;;881.27;824.17;;;;;;;;;;5031789;28;20220;-78
2021/10/11 07:06:26;;;;;;;972.30;903.03;;;6.30;1.00;;;;;;5023934;28;20218;-78
2021/10/11 07:08:53;;;;;;;1008.97;930.00;;;6.40;1.00;;;;;;5025238;28;20201;-79
2021/10/11 07:11:19;;;;;;;978.70;903.70;;;;;;;;;;5045899;28;20236;-78
2021/10/11 07:13:44;;;;;;;842.03;783.33;;;6.60;1.00;;;;;;5051603;28;20725;-78
2021/10/11 07:16:10;;;;;;;749.17;700.03;;;6.80;1.00;;;;;;5029319;28;20196;-78
2021/10/11 07:18:38;;;;;;;329.00;308.43;;;6.60;1.00;;;;;;5028805;28;20252;-78
2021/10/11 07:21:05;;;;;;;576.27;541.97;;;6.60;1.00;;;;;;5042410;28;20219;-77
2021/10/11 07:23:31;;;;;;;591.60;557.93;;;6.70;1.00;;;;;;5027102;28;20198;-79
2021/10/11 07:25:58;;;;;;;661.30;623.17;;;6.70;1.00;;;;;;5044720;28;20218;-78
2021/10/11 07:28:24;;;;;;;775.53;719.10;;;6.70;1.00;;;;;;5022658;28;20187;-78
2021/10/11 07:30:51;;;;;;;549.43;518.00;;;6.80;1.00;;;;;;5030557;28;20213;-79
2021/10/11 07:33:17;;;;;;;642.90;605.73;;;6.80;1.00;;;;;;5065038;28;20194;-79
2021/10/11 07:35:43;;;;;;;454.77;430.23;;;7.00;1.00;;;;;;5040878;28;20196;-79
2021/10/11 07:38:09;;;;;;;288.33;274.50;;;7.00;1.00;;;;;;5030987;28;20202;-79
2021/10/11 07:40:35;;;;;;;417.93;397.73;;;7.10;1.00;;;;;;5050567;28;20672;-79
2021/10/11 07:43:00;;;;;;;223.30;213.30;;;7.10;1.00;;;;;;5020035;28;20211;-79
2021/10/11 07:45:26;;;;;;;302.43;287.93;;;7.20;1.00;;;;;;5044960;28;20306;-83
2021/10/11 07:47:51;;;;;;;193.60;185.43;;;7.40;1.00;;;;;;5054533;28;20201;-80
2021/10/11 07:50:17;;;;;;;106.20;101.37;;;7.40;1.00;;;;;;5026564;28;20652;-78
2021/10/11 07:52:44;;;;;;;25.03;23.33;;;7.40;1.00;;;;;;5040656;28;20202;-79
2021/10/11 07:55:10;;;;;;;59.67;56.77;;;7.40;1.00;;;;;;5029239;28;20221;-79
2021/10/11 07:57:36;;;;;;;35.87;33.77;;;7.40;1.00;;;;;;5029395;28;20203;-78
2021/10/11 08:00:05;;;;;;;57.80;55.00;;;7.40;1.00;;;;;;5049452;28;20195;-85
2021/10/11 08:02:31;;;;;;;33.43;31.37;;;7.40;1.00;;;;;;5047318;28;20213;-81
2021/10/11 08:04:57;;;;;;;29.33;27.37;;;7.50;1.00;;;;;;5048729;28;20310;-81
2021/10/11 08:07:22;;;;;;;81.87;77.93;;;7.50;1.00;;;;;;5036888;28;20181;-83
2021/10/11 08:09:48;;;;;;;118.10;112.40;;;;;;;;;;5044635;28;20198;-81
2021/10/11 08:12:14;;;;;;;74.23;70.27;;;;;;;;;;5036182;28;20483;-81
2021/10/11 08:14:40;;;;;;;56.67;53.53;;;7.40;1.00;;;;;;5038068;28;20451;-80
2021/10/11 08:17:06;;;;;;;129.23;123.30;;;7.40;1.00;;;;;;5035627;28;20369;-79
2021/10/11 08:19:31;;;;;;;109.83;104.87;;;9.50;1.00;;;;;;5043506;28;20192;-83
2021/10/11 08:21:57;;;;;;;144.30;137.70;;;9.30;1.00;;;;;;5050843;28;20227;-82
2021/10/11 08:24:23;;;;;;;240.40;229.80;;;9.10;1.00;;;;;;5030834;28;20657;-83
2021/10/11 08:26:48;;;;;;;134.07;127.27;;;7.50;1.00;;;;;;5030394;28;20623;-84
2021/10/11 08:29:14;;;;;;;298.23;281.77;;;7.50;1.00;;;;;;5050178;28;20195;-83
2021/10/11 08:31:40;;;;;;;319.50;303.70;;;7.60;1.00;;;;;;5034027;28;20198;-83
2021/10/11 08:34:06;;;;;;;555.13;520.37;;;7.40;1.00;;;;;;5055006;28;20192;-86
2021/10/11 08:36:32;;;;;;;584.60;546.30;;;;;;;;;;5031496;28;20193;-80
2021/10/11 08:38:58;;;;;;;655.20;611.97;;;7.40;1.00;;;;;;5037093;28;20189;-80
2021/10/11 08:41:24;;;;;;;447.30;418.80;;;;;;;;;;5050668;28;20189;-80
2021/10/11 08:43:50;;;;;;;658.63;616.13;;;7.50;1.00;;;;;;5041214;28;20652;-80
2021/10/11 08:46:16;;;;;;;693.60;642.00;;;7.60;1.00;;;;;;5060195;28;20212;-80
2021/10/11 08:48:42;;;;;;;517.67;486.70;;;9.30;1.00;;;;;;5041952;28;20207;-80
2021/10/11 08:51:09;;;;;;;505.40;473.83;;;7.60;1.00;;;;;;5057167;28;20647;-81
2021/10/11 08:53:36;;;;;;;585.30;548.13;;;7.60;1.00;;;;;;5049868;28;20240;-80
2021/10/11 08:56:02;;;;;;;515.53;484.03;;;7.60;1.00;;;;;;5041660;28;20985;-83
2021/10/11 08:58:27;;;;;;;340.87;323.77;;;7.70;1.00;;;;;;5040156;28;20265;-80
2021/10/11 09:01:05;;;;;;;421.63;400.93;;;7.70;1.00;;;;;;5035463;28;20194;-79
2021/10/11 09:03:31;;;;;;;249.20;237.87;;;;;;;;;;5034803;28;20309;-80
2021/10/11 09:06:06;;;;;;;65.63;62.20;;;7.80;1.00;;;;;;5056359;28;20277;-80
2021/10/11 09:08:32;;;;;;;118.03;112.00;;;;;;;;;;5037633;28;20202;-79
2021/10/11 09:11:00;;;;;;;236.73;224.60;;;8.10;1.00;;;;;;5037365;28;20197;-79
2021/10/11 09:13:37;;;;;;;400.30;376.27;;;10.70;1.00;;;;;;5052475;28;20659;-80
2021/10/11 09:16:16;;;;;;;347.87;323.87;;;7.90;1.00;;;;;;5052911;28;20281;-80
2021/10/11 09:18:50;;;;;;;478.43;444.87;;;8.00;1.00;;;;;;5064627;28;20204;-80
2021/10/11 09:21:16;;;;;;;848.77;787.03;;;7.90;1.00;;;;;;5035585;28;20187;-80
2021/10/11 09:23:42;;;;;;;715.10;668.73;;;8.10;1.00;;;;;;5033255;28;20276;-80
2021/10/11 09:26:19;;;;;;;523.90;496.80;;;10.00;1.00;;;;;;5031493;28;20225;-80
2021/10/11 09:28:55;;;;;;;350.07;333.77;;;8.40;1.00;;;;;;5020733;28;20202;-80
2021/10/11 09:31:40;;;;;;;265.97;253.43;;;10.60;1.00;;;;;;5053810;28;20203;-80
2021/10/11 09:34:06;;;;;;;34.53;32.40;;;8.80;1.00;;;;;;5063615;28;20192;-80
2021/10/11 09:36:31;;;;;;;43.83;41.37;;;10.50;1.00;;;;;;5047353;28;20648;-80
2021/10/11 09:39:01;;;;;;;21.70;20.10;;;9.10;1.00;;;;;;5048148;28;20221;-80
2021/10/11 09:41:27;;;;;;;19.00;17.27;;;;;;;;;;5028894;28;20271;-80
2021/10/11 09:43:53;;;;;;;25.77;23.80;;;9.30;1.00;;;;;;5042117;28;20175;-80
2021/10/11 09:46:21;;;;;;;17.33;15.50;;;9.50;1.00;;;;;;5045064;28;20231;-80
2021/10/11 09:48:53;;;;;;;15.07;13.67;;;11.00;1.00;;;;;;5057667;28;20187;-81
2021/10/11 09:51:24;;;;;;;15.90;12.93;;;9.80;1.00;;;;;;5058062;28;20331;-81
2021/10/11 09:53:52;;;;;;;15.33;13.73;;;9.90;1.00;;;;;;5043108;28;20183;-80
2021/10/11 09:56:18;;;;;;;15.83;13.33;;;10.00;1.00;;;;;;5042017;28;20191;-80
2021/10/11 09:58:44;;;;;;;17.73;13.80;;;10.10;1.00;;;;;;5039713;28;20192;-80
2021/10/11 10:01:10;;;;;;;14.30;12.80;;;10.10;1.00;;;;;;5048114;28;20189;-79
2021/10/11 10:03:36;;;;;;;14.77;13.27;;;10.30;1.00;;;;;;5047224;28;20709;-80
2021/10/11 10:06:06;;;;;;;17.03;13.50;;;10.40;1.00;;;;;;5034750;28;20203;-79
2021/10/11 10:08:33;;;;;;;17.23;14.57;;;10.40;1.00;;;;;;5056173;28;20201;-80
2021/10/11 10:11:01;;;;;;;14.47;13.13;;;10.60;1.00;;;;;;5043487;28;20187;-80
2021/10/11 10:13:28;;;;;;;17.70;13.57;;;10.50;1.00;;;;;;5032069;28;20196;-80
2021/10/11 10:16:05;;;;;;;15.43;13.83;;;10.70;1.00;;;;;;5036158;28;20183;-80
2021/10/11 10:18:43;;;;;;;14.93;13.50;;;10.60;1.00;;;;;;5055087;28;20217;-80
2021/10/11 10:21:10;;;;;;;16.67;14.57;;;10.70;1.00;;;;;;5042927;28;20183;-81
2021/10/11 10:23:41;;;;;;;21.63;15.93;;;10.70;1.00;;;;;;5034221;28;20200;-80
2021/10/11 10:26:12;;;;;;;15.83;14.23;;;10.60;1.00;;;;;;5059476;28;20244;-81
2021/10/11 10:28:53;;;;;;;15.97;14.40;;;10.50;1.00;;;;;;5040335;28;20184;-80
2021/10/11 10:31:28;;;;;;;14.87;13.27;;;10.50;1.00;;;;;;5049610;28;20230;-87
2021/10/11 10:33:54;;;;;;;17.43;14.83;;;10.60;1.00;;;;;;5038255;28;20205;-85
2021/10/11 10:36:29;;;;;;;18.03;15.57;;;10.60;1.00;;;;;;5056389;28;20255;-84
2021/10/11 10:39:07;;;;;;;18.77;16.00;;;10.60;1.00;;;;;;5041886;28;20202;-82
2021/10/11 10:41:34;;;;;;;18.47;15.20;;;10.50;1.00;;;;;;5044301;28;20252;-83
2021/10/11 10:44:20;;;;;;;21.80;15.33;;;10.60;1.00;;;;;;5023535;28;20211;-81
2021/10/11 10:47:12;;;;;;;19.93;15.27;;;10.60;1.00;;;;;;5048387;28;20225;-79
2021/10/11 10:49:44;;;;;;;19.50;16.37;;;10.60;1.00;;;;;;5035654;28;20188;-79
2021/10/11 10:52:12;;;;;;;19.10;16.87;;;10.70;1.00;;;;;;5050061;28;20278;-79
2021/10/11 10:54:41;;;;;;;17.90;16.07;;;10.70;1.00;;;;;;5068039;28;20228;-80
2021/10/11 10:57:08;;;;;;;21.27;16.37;;;10.90;1.00;;;;;;5048669;28;20240;-80
2021/10/11 10:59:35;;;;;;;18.80;16.87;;;;;;;;;;5031339;28;20572;-79
2021/10/11 11:02:05;;;;;;;17.33;15.53;;;11.00;1.00;;;;;;5040539;28;20264;-79
2021/10/11 11:04:30;;;;;;;20.80;16.20;;;11.20;1.00;;;;;;5052164;28;20245;-80
2021/10/11 11:07:06;;;;;;;18.83;16.83;;;11.20;1.00;;;;;;5032636;28;20193;-79
2021/10/11 11:09:59;;;;;;;18.53;16.70;;;11.30;1.00;;;;;;5029869;28;20186;-80
2021/10/11 11:12:36;;;;;;;21.67;17.83;;;11.30;1.00;;;;;;5033338;28;20303;-80
2021/10/11 11:15:06;;;;;;;20.43;17.30;;;11.40;1.00;;;;;;5038230;28;20196;-79
2021/10/11 11:17:34;;;;;;;21.17;16.63;;;11.70;1.00;;;;;;5030653;28;20615;-79
2021/10/11 11:20:02;;;;;;;18.77;16.60;;;11.60;1.00;;;;;;5044843;28;20280;-80
2021/10/11 11:22:30;;;;;;;17.97;16.27;;;11.60;1.00;;;;;;5039779;28;20192;-80
2021/10/11 11:25:00;;;;;;;18.97;16.33;;;;;;;;;;5035747;28;20578;-79
2021/10/11 11:27:27;;;;;;;17.93;16.10;;;11.70;1.00;;;;;;5054996;28;20181;-80
2021/10/11 11:29:57;;;;;;;20.43;16.37;;;11.70;1.00;;;;;;5044894;28;20178;-79
2021/10/11 11:32:23;;;;;;;22.53;17.43;;;11.50;1.00;;;;;;5054146;28;20280;-80
2021/10/11 11:34:49;;;;;;;18.63;16.57;;;;;;;;;;5031241;28;20195;-79
2021/10/11 11:37:15;;;;;;;20.10;18.10;;;11.30;1.00;;;;;;5039363;28;20219;-79
2021/10/11 11:39:40;;;;;;;19.47;17.47;;;11.30;1.00;;;;;;5035248;28;20197;-79
2021/10/11 11:42:07;;;;;;;19.23;17.33;;;;;;;;;;5038714;28;20209;-84
2021/10/11 11:44:33;;;;;;;18.97;16.83;;;11.50;1.00;;;;;;5035252;28;20233;-84
2021/10/11 11:46:59;;;;;;;19.07;16.97;;;;;;;;;;5035837;28;20197;-84
2021/10/11 11:49:26;;;;;;;19.30;17.23;;;;;;;;;;5043675;28;20636;-83
2021/10/11 11:52:06;;;;;;;18.43;16.33;;;11.90;1.00;;;;;;5035313;28;20285;-84
2021/10/11 11:54:31;;;;;;;19.10;17.20;;;11.90;1.00;;;;;;5038301;28;20182;-85
2021/10/11 11:56:57;;;;;;;17.17;15.37;;;12.20;1.00;;;;;;5050045;28;20237;-82
2021/10/11 11:59:23;;;;;;;17.93;15.77;;;;;;;;;;5050840;28;20569;-85
2021/10/11 12:01:50;;;;;;;18.10;15.83;;;;;;;;;;5033177;28;20568;-88
2021/10/11 12:04:16;;;;;;;17.43;15.83;;;;;;;;;;5035527;28;20222;-84
2021/10/11 12:06:43;;;;;;;17.27;15.50;;;;;;;;;;5051470;28;20715;-85
2021/10/11 12:09:10;;;;;;;17.90;16.03;;;12.80;1.00;;;;;;5036882;28;20183;-83
2021/10/11 12:11:37;;;;;;;19.33;15.67;;;;;;;;;;5035217;28;20185;-85
2021/10/11 12:14:03;;;;;;;19.10;15.70;;;12.80;1.00;;;;;;5033815;28;20795;-82
2021/10/11 12:16:30;;;;;;;20.87;15.13;;;;;;;;;;5049241;28;20220;-82
2021/10/11 12:19:03;;;;;;;17.97;16.13;;;12.80;1.00;;;;;;5034915;28;20268;-82
2021/10/11 12:21:34;;;;;;;17.27;15.60;;;;;;;;;;5042573;28;20199;-82
2021/10/11 12:24:18;;;;;;;17.57;15.23;;;12.80;1.00;;;;;;5043121;28;20187;-82
2021/10/11 12:26:55;;;;;;;16.83;15.23;;;12.90;1.00;;;;;;5060974;28;20209;-81
2021/10/11 12:29:23;;;;;;;16.63;14.97;;;12.90;1.00;;;;;;5068353;28;20187;-80
2021/10/11 12:31:56;;;;;;;18.00;16.10;;;;;;;;;;5055501;28;20202;-80
2021/10/11 12:34:31;;;;;;;18.00;16.10;;;13.10;1.00;;;;;;5055580;28;20197;-80
2021/10/11 12:37:02;;;;;;;17.73;15.87;;;13.10;1.00;;;;;;5034514;28;20190;-81
2021/10/11 12:39:36;;;;;;;19.23;16.27;;;13.00;1.00;;;;;;5055774;28;20278;-81
2021/10/11 12:42:08;;;;;;;17.53;15.53;;;12.80;1.00;;;;;;5043867;28;20253;-80
2021/10/11 12:44:39;;;;;;;19.27;16.93;;;12.80;1.00;;;;;;5040710;28;20214;-81
2021/10/11 12:47:05;;;;;;;18.37;16.40;;;;;;;;;;5041392;28;20562;-81
2021/10/11 12:49:37;;;;;;;18.53;16.63;;;12.60;1.00;;;;;;5054470;28;20184;-81
2021/10/11 12:52:05;;;;;;;16.97;15.30;;;12.60;1.00;;;;;;5058168;28;20533;-80
2021/10/11 12:54:33;;;;;;;17.97;16.10;;;12.60;1.00;;;;;;5051180;28;20201;-82
2021/10/11 12:57:03;;;;;;;16.57;14.97;;;;;;;;;;5035654;28;20189;-80